Time;durP1;ratioP1;P1;durP2;ratioP2;P2;SDS_P1;SDS_P2;PMS_P1;PMS_P2;Temp;Humidity;BMP_temperature;BMP_pressure;BME280_temperature;BME280_humidity;BME280_pressure;Samples;Min_cycle;Max_cycle;Signal;HPM_P1;HPM_P2
2022/05/27 00:00:06;;;;;;;2.80;2.57;;;13.70;99.90;;;;;;4832708;29;20266;-96
2022/05/27 00:02:31;;;;;;;2.67;2.47;;;13.60;99.90;;;;;;4830587;29;20459;-95
2022/05/27 00:05:07;;;;;;;3.03;2.83;;;13.50;99.90;;;;;;4826810;29;21279;-96
2022/05/27 00:07:37;;;;;;;3.60;3.03;;;13.50;99.90;;;;;;4821380;29;20202;-96
2022/05/27 00:10:18;;;;;;;2.87;2.67;;;13.50;99.90;;;;;;4827163;29;20511;-96
2022/05/27 00:12:44;;;;;;;2.30;2.20;;;13.40;99.90;;;;;;4839297;29;20194;-95
2022/05/27 00:15:12;;;;;;;2.87;2.67;;;13.40;99.90;;;;;;4840822;29;20459;-96
2022/05/27 00:17:38;;;;;;;3.57;3.00;;;13.40;99.90;;;;;;4822741;29;20214;-96
2022/05/27 00:20:04;;;;;;;2.87;2.67;;;13.30;99.90;;;;;;4835004;29;21013;-96
2022/05/27 00:22:32;;;;;;;2.73;2.53;;;13.30;99.90;;;;;;4834895;29;20228;-93
2022/05/27 00:24:57;;;;;;;2.87;2.67;;;13.20;99.90;;;;;;4826528;29;20491;-94
2022/05/27 00:27:57;;;;;;;2.93;2.63;;;13.20;99.90;;;;;;4838809;29;20451;-93
2022/05/27 00:30:24;;;;;;;3.33;3.03;;;13.10;99.90;;;;;;4829717;29;20325;-94
2022/05/27 00:32:52;;;;;;;3.03;2.73;;;13.10;99.90;;;;;;4843301;29;20508;-94
2022/05/27 00:35:25;;;;;;;4.93;3.20;;;13.10;99.90;;;;;;4832236;29;20522;-95
2022/05/27 00:37:51;;;;;;;2.97;2.77;;;13.10;99.90;;;;;;4826747;29;20459;-95
2022/05/27 00:40:25;;;;;;;2.83;2.63;;;13.10;99.90;;;;;;4826611;29;20508;-94
2022/05/27 00:42:51;;;;;;;2.80;2.63;;;13.00;99.90;;;;;;4821714;29;20266;-94
2022/05/27 00:45:20;;;;;;;3.90;2.90;;;13.00;99.90;;;;;;4817704;29;20457;-93
2022/05/27 00:47:50;;;;;;;3.30;3.00;;;13.00;99.90;;;;;;4826142;29;20489;-94
2022/05/27 00:50:22;;;;;;;4.20;3.20;;;13.00;99.90;;;;;;4825024;29;20440;-95
2022/05/27 00:52:51;;;;;;;3.80;3.43;;;12.90;99.90;;;;;;4840214;29;20514;-93
2022/05/27 00:55:22;;;;;;;3.97;3.57;;;13.00;99.90;;;;;;4814322;29;21536;-93
2022/05/27 00:58:10;;;;;;;4.00;3.60;;;12.90;99.90;;;;;;4800601;29;20454;-94
2022/05/27 01:00:39;;;;;;;3.57;3.27;;;12.80;99.90;;;;;;4817362;29;20450;-95
2022/05/27 01:03:12;;;;;;;4.37;3.57;;;12.90;99.90;;;;;;4825531;29;20450;-94
2022/05/27 01:05:46;;;;;;;3.80;3.50;;;12.90;99.90;;;;;;4823805;29;21887;-93
2022/05/27 01:08:17;;;;;;;3.30;3.10;;;12.80;99.90;;;;;;4819571;29;20490;-94
2022/05/27 01:11:19;;;;;;;3.80;3.50;;;12.70;99.90;;;;;;4829593;29;20447;-93
2022/05/27 01:14:14;;;;;;;3.67;3.37;;;12.70;99.90;;;;;;4822027;29;20487;-94
2022/05/27 01:17:07;;;;;;;4.50;3.90;;;12.70;99.90;;;;;;4838281;29;20475;-93
2022/05/27 01:23:11;;;;;;;4.10;3.70;;;12.70;99.90;;;;;;4819990;29;20655;-94
2022/05/27 01:26:03;;;;;;;3.30;3.03;;;12.60;99.90;;;;;;4827261;29;20494;-94
2022/05/27 01:28:43;;;;;;;5.20;3.47;;;12.60;99.90;;;;;;4843717;29;20490;-93
2022/05/27 01:31:33;;;;;;;3.80;3.50;;;12.60;99.90;;;;;;4826013;29;20455;-94
2022/05/27 01:34:18;;;;;;;3.90;3.50;;;12.70;99.90;;;;;;4825699;29;20452;-94
2022/05/27 01:37:12;;;;;;;7.90;3.67;;;12.60;99.90;;;;;;4826030;29;20454;-94
2022/05/27 01:39:48;;;;;;;4.30;3.90;;;12.60;99.90;;;;;;4837438;29;20460;-94
2022/05/27 01:42:50;;;;;;;3.43;3.20;;;12.60;99.90;;;;;;4824831;29;20765;-94
2022/05/27 01:45:38;;;;;;;3.70;3.40;;;12.60;99.90;;;;;;4832638;29;20787;-93
2022/05/27 01:48:12;;;;;;;2.93;2.73;;;12.40;99.90;;;;;;4846092;29;20478;-94
2022/05/27 01:51:07;;;;;;;3.57;2.90;;;12.40;99.90;;;;;;4839921;29;20999;-94
2022/05/27 01:54:06;;;;;;;3.20;2.90;;;12.30;99.90;;;;;;4857295;29;20514;-96
2022/05/27 01:56:54;;;;;;;3.60;3.40;;;12.30;99.90;;;;;;4834947;29;20446;-96
2022/05/27 01:59:22;;;;;;;5.93;3.20;;;12.30;99.90;;;;;;4851054;29;20447;-93
2022/05/27 02:01:59;;;;;;;5.40;2.90;;;12.30;99.90;;;;;;4824023;29;20583;-95
2022/05/27 02:04:50;;;;;;;3.20;3.00;;;12.30;99.90;;;;;;4854907;29;20451;-94
2022/05/27 02:07:25;;;;;;;3.40;3.20;;;12.20;99.90;;;;;;4844578;29;20449;-95
2022/05/27 02:09:59;;;;;;;3.33;3.13;;;12.20;99.90;;;;;;4846322;29;20985;-95
2022/05/27 02:12:50;;;;;;;3.00;2.80;;;12.20;99.90;;;;;;4823291;29;20455;-95
2022/05/27 02:15:39;;;;;;;3.53;3.13;;;12.30;99.90;;;;;;4823490;29;20444;-94
2022/05/27 02:18:17;;;;;;;5.27;3.13;;;12.30;99.90;;;;;;4836928;29;20550;-95
2022/05/27 02:20:49;;;;;;;3.40;3.10;;;12.40;99.90;;;;;;4834774;29;20504;-96
2022/05/27 02:23:38;;;;;;;3.43;3.03;;;12.30;99.90;;;;;;4841900;29;20450;-94
2022/05/27 02:26:11;;;;;;;2.40;2.30;;;12.30;99.90;;;;;;4826984;29;20451;-95
2022/05/27 02:28:46;;;;;;;4.43;2.90;;;12.40;99.90;;;;;;4828994;29;20493;-94
2022/05/27 02:31:18;;;;;;;2.87;2.67;;;12.40;99.90;;;;;;4847595;29;20546;-94
2022/05/27 02:36:39;;;;;;;2.67;2.50;;;12.30;99.90;;;;;;4837061;29;20503;-95
2022/05/27 02:39:07;;;;;;;2.90;2.70;;;12.30;99.90;;;;;;4831729;29;20601;-95
2022/05/27 02:41:33;;;;;;;3.70;2.90;;;12.30;99.90;;;;;;4840013;29;20457;-94
2022/05/27 02:44:07;;;;;;;2.83;2.63;;;12.20;99.90;;;;;;4835220;29;20478;-95
2022/05/27 02:46:57;;;;;;;3.07;2.60;;;12.20;99.90;;;;;;4827134;29;20197;-95
2022/05/27 02:49:31;;;;;;;2.90;2.70;;;12.20;99.90;;;;;;4844130;29;20505;-94
2022/05/27 02:52:26;;;;;;;4.47;3.13;;;12.10;99.90;;;;;;4823569;29;20964;-96
2022/05/27 02:55:53;;;;;;;3.37;3.17;;;12.10;99.90;;;;;;4831457;29;20455;-95
2022/05/27 02:58:22;;;;;;;2.97;2.77;;;12.10;99.90;;;;;;4829581;29;21143;-96
2022/05/27 03:00:48;;;;;;;5.70;2.77;;;12.10;99.90;;;;;;4827249;29;20450;-96
2022/05/27 03:03:14;;;;;;;2.70;2.50;;;12.00;99.90;;;;;;4829961;29;20451;-96
2022/05/27 03:06:13;;;;;;;3.70;3.10;;;11.90;99.90;;;;;;4842584;29;20218;-95
2022/05/27 03:09:04;;;;;;;3.47;3.27;;;12.00;99.90;;;;;;4834037;29;21021;-96
2022/05/27 03:11:51;;;;;;;2.80;2.60;;;12.00;99.90;;;;;;4841653;29;20450;-96
2022/05/27 03:14:30;;;;;;;3.17;2.97;;;12.00;99.90;;;;;;4834913;29;20965;-96
2022/05/27 03:17:06;;;;;;;2.97;2.70;;;11.90;99.90;;;;;;4829349;29;20892;-95
2022/05/27 03:19:39;;;;;;;3.17;2.87;;;11.90;99.90;;;;;;4831771;29;20454;-96
2022/05/27 03:22:30;;;;;;;3.03;2.80;;;11.90;99.90;;;;;;4831212;29;20466;-96
2022/05/27 03:25:28;;;;;;;2.80;2.60;;;11.90;99.90;;;;;;4829280;29;20453;-93
2022/05/27 03:27:53;;;;;;;3.90;3.53;;;11.90;99.90;;;;;;4829145;29;21109;-95
2022/05/27 03:30:37;;;;;;;3.93;3.63;;;11.90;99.90;;;;;;4823636;29;20466;-95
2022/05/27 03:33:12;;;;;;;4.00;3.23;;;11.90;99.90;;;;;;4837021;29;20221;-95
2022/05/27 03:36:08;;;;;;;3.30;3.10;;;11.90;99.90;;;;;;4825596;29;21011;-95
2022/05/27 03:38:52;;;;;;;3.63;3.33;;;11.80;99.90;;;;;;4829155;29;20459;-95
2022/05/27 03:41:37;;;;;;;3.17;2.97;;;11.80;99.90;;;;;;4826510;29;20806;-94
2022/05/27 03:44:05;;;;;;;3.60;3.30;;;11.90;99.90;;;;;;4832425;29;20921;-92
2022/05/27 03:46:44;;;;;;;4.57;3.07;;;11.90;99.90;;;;;;4824805;29;20451;-92
2022/05/27 03:49:10;;;;;;;3.70;3.40;;;11.90;99.90;;;;;;4822583;29;21182;-93
2022/05/27 03:51:50;;;;;;;3.80;3.40;;;11.90;99.90;;;;;;4821277;29;20462;-95
2022/05/27 03:54:20;;;;;;;3.70;3.50;;;11.90;99.90;;;;;;4827175;29;20463;-95
2022/05/27 03:56:56;;;;;;;4.23;3.77;;;11.90;99.90;;;;;;4828471;29;20447;-95
2022/05/27 03:59:23;;;;;;;3.33;3.10;;;12.00;99.90;;;;;;4839387;29;20673;-94
2022/05/27 04:01:52;;;;;;;3.67;3.40;;;12.00;99.90;;;;;;4828754;29;20457;-95
2022/05/27 04:04:26;;;;;;;4.60;2.90;;;12.10;99.90;;;;;;4824974;29;20441;-94
2022/05/27 04:06:52;;;;;;;3.03;2.80;;;12.20;99.90;;;;;;4833333;29;20451;-94
2022/05/27 04:09:20;;;;;;;3.40;2.70;;;12.20;99.90;;;;;;4831752;29;20789;-95
2022/05/27 04:11:46;;;;;;;3.00;2.73;;;12.20;99.90;;;;;;4831319;29;20480;-93
2022/05/27 04:14:12;;;;;;;3.47;3.10;;;12.30;99.90;;;;;;4827879;29;21199;-94
2022/05/27 04:16:39;;;;;;;3.77;3.03;;;12.30;99.90;;;;;;4845960;29;20447;-94
2022/05/27 04:19:04;;;;;;;3.23;3.03;;;12.30;99.90;;;;;;4825351;29;20448;-94
2022/05/27 04:21:30;;;;;;;4.30;3.10;;;12.30;99.90;;;;;;4827001;29;20567;-91
2022/05/27 04:23:57;;;;;;;8.50;3.30;;;12.30;99.90;;;;;;4824428;29;20289;-92
2022/05/27 04:26:23;;;;;;;3.17;2.97;;;12.30;99.90;;;;;;4832362;29;20197;-92
2022/05/27 04:28:49;;;;;;;2.80;2.60;;;12.40;99.90;;;;;;4816913;29;20466;-93
2022/05/27 04:31:14;;;;;;;3.80;2.77;;;12.50;99.90;;;;;;4814522;29;20530;-93
2022/05/27 04:33:40;;;;;;;3.13;2.83;;;12.50;99.90;;;;;;4824744;29;20198;-94
2022/05/27 04:36:08;;;;;;;3.23;2.70;;;12.60;99.90;;;;;;4830754;29;20254;-94
2022/05/27 04:38:36;;;;;;;3.17;2.90;;;12.70;99.90;;;;;;4829958;29;20447;-94
2022/05/27 04:41:02;;;;;;;2.90;2.70;;;12.80;99.90;;;;;;4824589;29;20465;-93
2022/05/27 04:43:28;;;;;;;3.07;2.77;;;12.80;99.90;;;;;;4829552;29;20802;-94
2022/05/27 04:45:53;;;;;;;2.43;2.30;;;12.80;99.90;;;;;;4823511;29;20190;-94
2022/05/27 04:48:19;;;;;;;2.57;2.47;;;12.80;99.90;;;;;;4822917;29;20309;-94
2022/05/27 04:50:46;;;;;;;2.77;2.53;;;12.80;99.90;;;;;;4826134;29;20195;-94
2022/05/27 04:53:12;;;;;;;2.70;2.50;;;12.80;99.90;;;;;;4835606;29;20502;-93
2022/05/27 04:55:39;;;;;;;5.93;2.97;;;12.90;99.90;;;;;;4823187;29;20451;-93
2022/05/27 04:58:06;;;;;;;2.93;2.60;;;12.90;99.90;;;;;;4816169;29;20859;-93
2022/05/27 05:00:43;;;;;;;3.43;2.47;;;13.00;99.90;;;;;;4828201;29;20461;-93
2022/05/27 05:03:09;;;;;;;3.00;2.80;;;13.00;99.90;;;;;;4813119;29;20502;-93
2022/05/27 05:05:35;;;;;;;4.63;2.70;;;13.10;99.90;;;;;;4830204;29;20458;-91
2022/05/27 05:08:06;;;;;;;2.33;2.13;;;13.20;99.90;;;;;;4819617;29;20471;-93
2022/05/27 05:10:32;;;;;;;3.40;2.80;;;13.20;99.90;;;;;;4840516;29;20454;-93
2022/05/27 05:12:58;;;;;;;2.97;2.53;;;13.20;99.90;;;;;;4821768;29;22417;-94
2022/05/27 05:15:25;;;;;;;2.83;2.43;;;13.20;99.90;;;;;;4820982;29;20459;-96
2022/05/27 05:17:51;;;;;;;2.63;2.43;;;13.20;99.90;;;;;;4817765;29;20578;-94
2022/05/27 05:20:20;;;;;;;2.80;2.60;;;13.30;99.90;;;;;;4818835;29;20957;-95
2022/05/27 05:22:46;;;;;;;2.77;2.57;;;13.40;99.90;;;;;;4835582;29;20195;-95
2022/05/27 05:25:12;;;;;;;2.73;2.53;;;13.50;99.90;;;;;;4827112;29;20582;-95
2022/05/27 05:27:39;;;;;;;3.33;3.00;;;13.60;99.90;;;;;;4824547;29;21299;-95
2022/05/27 05:30:07;;;;;;;2.87;2.67;;;13.60;99.90;;;;;;4823956;29;20198;-95
2022/05/27 05:32:33;;;;;;;3.13;2.80;;;13.70;99.90;;;;;;4822906;29;20841;-96
2022/05/27 05:34:59;;;;;;;2.73;2.50;;;13.90;99.90;;;;;;4840113;29;20976;-95
2022/05/27 05:37:26;;;;;;;3.17;2.97;;;14.00;99.90;;;;;;4833976;29;20194;-95
2022/05/27 05:39:51;;;;;;;4.03;2.60;;;14.20;99.90;;;;;;4823572;29;20610;-96
2022/05/27 05:42:17;;;;;;;3.20;3.00;;;14.30;99.90;;;;;;4823251;29;20463;-94
2022/05/27 05:44:43;;;;;;;2.53;2.30;;;14.50;99.90;;;;;;4832768;29;20186;-96
2022/05/27 05:47:09;;;;;;;6.20;2.77;;;14.60;99.90;;;;;;4842561;29;20209;-96
2022/05/27 05:49:38;;;;;;;2.80;2.60;;;14.80;99.90;;;;;;4843011;29;20680;-96
2022/05/27 05:52:04;;;;;;;3.67;2.73;;;14.70;99.90;;;;;;4836761;29;20334;-96
2022/05/27 05:54:30;;;;;;;2.87;2.60;;;14.80;99.90;;;;;;4842885;29;20465;-95
2022/05/27 05:57:00;;;;;;;2.90;2.20;;;14.90;99.90;;;;;;4836858;29;20451;-95
2022/05/27 05:59:33;;;;;;;2.80;2.50;;;15.00;99.90;;;;;;4831053;29;21302;-96
2022/05/27 06:02:00;;;;;;;3.23;2.20;;;15.00;99.90;;;;;;4821589;29;20922;-95
2022/05/27 06:04:26;;;;;;;2.53;2.33;;;15.10;99.90;;;;;;4851327;29;20635;-92
2022/05/27 06:06:52;;;;;;;3.93;2.07;;;15.10;99.90;;;;;;4843353;29;22337;-95
2022/05/27 06:09:22;;;;;;;2.50;2.17;;;15.10;99.90;;;;;;4856888;29;20388;-95
2022/05/27 06:11:48;;;;;;;4.70;2.20;;;15.20;99.90;;;;;;4844378;29;20450;-96
2022/05/27 06:14:14;;;;;;;2.77;2.57;;;15.30;99.90;;;;;;4840097;29;20454;-93
2022/05/27 06:16:39;;;;;;;3.17;2.63;;;15.30;99.90;;;;;;4826667;29;20191;-96
2022/05/27 06:19:05;;;;;;;3.00;2.30;;;15.30;99.90;;;;;;4826684;29;20186;-95
2022/05/27 06:21:31;;;;;;;2.77;2.50;;;15.30;99.90;;;;;;4832004;29;20695;-95
2022/05/27 06:23:56;;;;;;;5.90;2.77;;;15.40;99.90;;;;;;4838547;29;20214;-95
2022/05/27 06:26:22;;;;;;;4.40;2.70;;;15.50;99.90;;;;;;4827448;29;20194;-94
2022/05/27 06:34:25;;;;;;;3.20;2.37;;;15.70;99.90;;;;;;4847013;29;20506;-94
2022/05/27 06:37:14;;;;;;;3.07;2.20;;;15.70;99.90;;;;;;4832155;29;20597;-95
2022/05/27 06:39:47;;;;;;;2.43;2.23;;;15.70;99.90;;;;;;4852727;29;20983;-95
2022/05/27 06:52:34;;;;;;;3.80;3.30;;;15.90;99.90;;;;;;4843467;29;20809;-91
2022/05/27 06:55:15;;;;;;;4.63;2.63;;;15.90;99.90;;;;;;4845206;29;20925;-96
2022/05/27 06:57:42;;;;;;;3.70;2.67;;;15.90;99.90;;;;;;4847030;29;20455;-93
2022/05/27 07:00:17;;;;;;;2.90;2.40;;;16.00;99.90;;;;;;4837321;29;20550;-93
2022/05/27 07:02:54;;;;;;;2.57;2.30;;;16.10;99.90;;;;;;4848898;29;24174;-95
2022/05/27 07:05:26;;;;;;;4.00;2.53;;;16.00;99.90;;;;;;4831988;29;20458;-94
2022/05/27 07:08:13;;;;;;;3.30;2.00;;;15.90;99.90;;;;;;4843871;29;20548;-94
2022/05/27 07:10:53;;;;;;;2.90;2.40;;;15.90;99.90;;;;;;4828417;29;20455;-96
2022/05/27 07:13:41;;;;;;;5.00;2.60;;;15.90;99.90;;;;;;4843567;29;20516;-96
2022/05/27 07:16:07;;;;;;;2.63;2.43;;;16.00;99.90;;;;;;4853949;29;20447;-95
2022/05/27 07:18:54;;;;;;;3.47;2.57;;;16.00;99.90;;;;;;4841675;29;20463;-92
2022/05/27 07:21:21;;;;;;;3.50;2.37;;;16.20;99.90;;;;;;4848387;29;20556;-95
2022/05/27 07:23:56;;;;;;;3.00;2.43;;;16.10;99.90;;;;;;4846894;29;20466;-95
2022/05/27 07:26:30;;;;;;;3.40;3.00;;;16.00;99.90;;;;;;4839808;29;20475;-94
2022/05/27 07:28:56;;;;;;;2.87;2.23;;;16.10;99.90;;;;;;4842584;29;21739;-96
2022/05/27 07:31:25;;;;;;;3.10;2.90;;;16.20;99.90;;;;;;4841432;29;20481;-96
2022/05/27 07:33:50;;;;;;;3.43;2.40;;;16.10;99.90;;;;;;4843166;29;20467;-94
2022/05/27 07:36:19;;;;;;;2.53;2.33;;;16.30;99.90;;;;;;4851598;29;20451;-96
2022/05/27 07:38:51;;;;;;;4.33;2.73;;;16.50;99.90;;;;;;4809584;29;20194;-96
2022/05/27 07:41:31;;;;;;;2.60;2.43;;;16.30;99.90;;;;;;4830261;29;20456;-95
2022/05/27 07:43:59;;;;;;;2.80;2.53;;;16.30;99.90;;;;;;4834783;29;20451;-94
2022/05/27 07:46:25;;;;;;;4.40;4.00;;;16.50;99.90;;;;;;4827631;29;20493;-95
2022/05/27 07:48:51;;;;;;;3.00;2.53;;;16.60;99.90;;;;;;4833204;29;20836;-94
2022/05/27 07:51:17;;;;;;;4.00;2.93;;;16.40;99.90;;;;;;4832450;29;20876;-93
2022/05/27 07:53:48;;;;;;;3.23;2.93;;;16.30;99.90;;;;;;4832929;29;20458;-95
2022/05/27 07:56:17;;;;;;;2.50;2.33;;;16.60;99.90;;;;;;4840115;29;20467;-94
2022/05/27 07:58:42;;;;;;;2.80;2.60;;;16.80;99.90;;;;;;4831797;29;22099;-95
2022/05/27 08:01:08;;;;;;;4.93;2.63;;;16.90;99.90;;;;;;4839829;29;21033;-92
2022/05/27 08:03:34;;;;;;;2.90;2.50;;;16.90;99.90;;;;;;4838549;29;20191;-89
2022/05/27 08:06:00;;;;;;;5.83;2.80;;;16.80;99.90;;;;;;4840990;29;21112;-90
2022/05/27 08:08:29;;;;;;;2.73;2.53;;;16.90;99.90;;;;;;4858293;29;20479;-90
2022/05/27 08:10:56;;;;;;;2.90;2.67;;;17.30;99.90;;;;;;4848776;29;20455;-90
2022/05/27 08:13:21;;;;;;;2.83;2.63;;;17.40;99.90;;;;;;4842481;29;21233;-90
2022/05/27 08:15:47;;;;;;;3.13;2.70;;;17.20;99.90;;;;;;4833203;29;20579;-90
2022/05/27 08:18:12;;;;;;;4.00;2.90;;;17.10;99.90;;;;;;4831026;29;20588;-89
2022/05/27 08:20:39;;;;;;;4.17;2.80;;;17.10;99.90;;;;;;4837129;29;20289;-90
2022/05/27 08:23:05;;;;;;;4.80;2.90;;;16.90;99.90;;;;;;4845218;29;20210;-89
2022/05/27 08:25:35;;;;;;;3.60;3.20;;;16.50;99.90;;;;;;4839691;29;20542;-89
2022/05/27 08:28:05;;;;;;;3.67;3.07;;;16.50;99.90;;;;;;4831247;29;20770;-89
2022/05/27 08:30:38;;;;;;;3.10;2.80;;;16.30;99.90;;;;;;4836626;29;20459;-91
2022/05/27 08:33:06;;;;;;;3.63;3.00;;;16.40;99.90;;;;;;4840731;29;20451;-90
2022/05/27 08:38:22;;;;;;;3.00;2.80;;;16.70;99.90;;;;;;4827761;29;20462;-89
2022/05/27 08:41:03;;;;;;;3.27;2.97;;;16.90;99.90;;;;;;4820601;29;22384;-89
2022/05/27 08:43:59;;;;;;;3.93;2.87;;;17.00;99.90;;;;;;4843748;29;20455;-92
2022/05/27 08:47:01;;;;;;;2.80;2.60;;;17.00;99.90;;;;;;4830832;29;20484;-91
2022/05/27 08:49:34;;;;;;;2.93;2.73;;;16.80;99.90;;;;;;4830322;29;20566;-93
2022/05/27 08:52:13;;;;;;;4.57;2.97;;;16.60;99.90;;;;;;4820287;29;20482;-92
2022/05/27 08:54:52;;;;;;;3.47;3.17;;;16.60;99.90;;;;;;4824439;29;20535;-90
2022/05/27 09:00:16;;;;;;;3.20;2.90;;;16.60;99.90;;;;;;4836034;29;20574;-92
2022/05/27 09:03:00;;;;;;;5.40;2.87;;;16.60;99.90;;;;;;4825414;29;20466;-91
2022/05/27 09:05:59;;;;;;;2.90;2.70;;;16.70;99.90;;;;;;4838874;29;21021;-90
2022/05/27 09:08:30;;;;;;;3.13;2.73;;;16.60;99.90;;;;;;4844729;29;20482;-91
2022/05/27 09:11:13;;;;;;;4.13;2.67;;;16.90;99.90;;;;;;4857462;29;20597;-91
2022/05/27 09:14:03;;;;;;;3.90;3.30;;;16.90;99.90;;;;;;4825342;29;20458;-90
2022/05/27 09:16:46;;;;;;;3.07;2.77;;;17.30;99.90;;;;;;4832052;29;20451;-91
2022/05/27 09:19:53;;;;;;;2.90;2.70;;;17.80;99.90;;;;;;4841715;29;20485;-89
2022/05/27 09:22:41;;;;;;;3.17;2.87;;;17.70;99.90;;;;;;4835013;29;20449;-92
2022/05/27 09:29:20;;;;;;;;;;;;;;;;;;;;;
2022/05/27 09:32:05;;;;;;;3.10;2.83;;;17.60;99.90;;;;;;4836756;29;20480;-93
2022/05/27 09:34:42;;;;;;;4.27;2.87;;;17.10;99.90;;;;;;4848078;29;20459;-94
2022/05/27 17:30:02;;;;;;;1.10;1.10;;;20.50;92.40;;;;;;587702;23;20807;-89
2022/05/27 17:32:33;;;;;;;0.80;0.80;;;19.30;94.30;;;;;;4865317;29;20695;-90
2022/05/27 17:34:58;;;;;;;1.10;0.70;;;19.90;94.20;;;;;;4871725;29;20769;-89
2022/05/27 17:37:24;;;;;;;1.00;1.00;;;20.30;93.10;;;;;;4890696;29;20440;-88
2022/05/27 17:39:50;;;;;;;1.33;1.10;;;20.00;93.40;;;;;;4870182;29;20197;-94
2022/05/27 17:42:30;;;;;;;1.60;1.30;;;20.30;93.30;;;;;;4869463;29;20199;-91
2022/05/27 17:44:56;;;;;;;1.97;1.30;;;19.20;94.20;;;;;;4869176;29;20204;-92
2022/05/27 17:52:56;;;;;;;1.60;1.50;;;18.60;95.80;;;;;;4906361;29;20532;-95
2022/05/27 17:55:23;;;;;;;1.07;1.00;;;19.10;94.60;;;;;;4886927;29;20448;-94
2022/05/27 18:01:00;;;;;;;0.97;0.90;;;20.30;93.30;;;;;;4895250;29;20563;-96
2022/05/27 18:03:30;;;;;;;1.23;1.00;;;20.40;92.90;;;;;;4886450;29;20591;-95
2022/05/27 18:06:00;;;;;;;1.00;1.00;;;20.30;92.90;;;;;;4881955;29;20444;-96
2022/05/27 18:08:26;;;;;;;1.20;1.20;;;21.10;92.50;;;;;;4890912;29;20456;-96
2022/05/27 18:10:54;;;;;;;1.20;1.10;;;21.20;91.60;;;;;;4880278;29;20448;-94
2022/05/27 18:13:20;;;;;;;0.90;0.90;;;21.20;91.50;;;;;;4885932;29;20539;-94
2022/05/27 18:15:49;;;;;;;2.70;1.63;;;19.70;92.60;;;;;;4889303;29;20451;-94
2022/05/27 18:18:23;;;;;;;1.40;1.30;;;18.60;93.90;;;;;;4864054;29;20299;-96
2022/05/27 18:21:03;;;;;;;1.40;1.30;;;18.00;95.10;;;;;;4861836;29;20460;-95
2022/05/27 18:23:30;;;;;;;1.30;1.20;;;17.80;95.90;;;;;;4869880;29;20443;-96
2022/05/27 18:26:03;;;;;;;1.10;1.10;;;17.60;96.60;;;;;;4902188;29;20200;-95
2022/05/27 18:28:29;;;;;;;2.57;1.33;;;17.50;97.00;;;;;;4879629;29;20478;-93
2022/05/27 18:30:55;;;;;;;1.53;1.43;;;17.40;97.20;;;;;;4889211;29;20827;-92
2022/05/27 18:33:21;;;;;;;2.53;2.33;;;17.50;97.50;;;;;;4880141;29;20741;-91
2022/05/27 18:35:47;;;;;;;1.73;1.50;;;17.40;97.80;;;;;;4864350;29;20464;-94
2022/05/27 18:38:12;;;;;;;1.70;1.60;;;17.10;97.90;;;;;;4867066;29;20192;-93
2022/05/27 18:40:38;;;;;;;1.70;1.60;;;17.00;97.90;;;;;;4868652;29;20325;-92
2022/05/27 18:43:04;;;;;;;2.13;1.23;;;16.90;98.20;;;;;;4864342;29;20189;-94
2022/05/27 18:45:31;;;;;;;1.80;1.70;;;16.80;98.50;;;;;;4873935;29;20249;-92
2022/05/27 18:47:57;;;;;;;1.73;1.63;;;16.80;98.60;;;;;;4885969;29;20610;-93
2022/05/27 18:50:24;;;;;;;1.77;1.67;;;16.60;98.80;;;;;;4882861;29;20484;-93
2022/05/27 18:52:50;;;;;;;2.33;2.00;;;16.60;99.00;;;;;;4886599;29;20484;-93
2022/05/27 18:55:19;;;;;;;2.13;2.00;;;16.40;99.00;;;;;;4884002;29;20544;-93
2022/05/27 18:57:45;;;;;;;2.60;1.57;;;16.50;99.20;;;;;;4901790;29;20595;-92
2022/05/27 19:00:12;;;;;;;2.10;1.50;;;16.40;99.30;;;;;;4901878;29;20508;-93
2022/05/27 19:02:38;;;;;;;2.40;2.07;;;16.30;99.60;;;;;;4901441;29;20444;-93
2022/05/27 19:05:08;;;;;;;2.30;2.10;;;16.30;99.70;;;;;;4888561;29;21017;-92
2022/05/27 19:07:34;;;;;;;1.70;1.60;;;16.30;99.80;;;;;;4871818;29;20506;-93
2022/05/27 19:10:00;;;;;;;1.70;1.60;;;16.20;99.90;;;;;;4862512;29;20503;-92
2022/05/27 19:12:27;;;;;;;2.30;2.20;;;16.20;99.90;;;;;;4881941;29;20508;-95
2022/05/27 19:14:54;;;;;;;2.90;2.47;;;16.00;99.90;;;;;;4895384;29;21029;-91
2022/05/27 19:17:21;;;;;;;2.77;2.57;;;16.00;99.90;;;;;;4887271;29;20551;-94
2022/05/27 19:22:32;;;;;;;4.13;3.10;;;15.80;99.90;;;;;;4900954;29;20459;-91
2022/05/27 19:25:01;;;;;;;2.67;2.10;;;15.70;99.90;;;;;;4862749;29;20452;-91
2022/05/27 19:27:29;;;;;;;3.40;2.10;;;15.80;99.90;;;;;;4871346;29;20472;-91
2022/05/27 19:30:12;;;;;;;2.50;2.13;;;15.80;99.90;;;;;;4878161;29;20575;-93
2022/05/27 19:33:05;;;;;;;2.20;2.10;;;15.70;99.90;;;;;;4894529;29;20453;-93
2022/05/27 19:35:33;;;;;;;1.93;1.80;;;15.70;99.90;;;;;;4884832;29;20452;-91
2022/05/27 19:37:59;;;;;;;2.17;1.77;;;15.70;99.90;;;;;;4874936;29;21494;-93
2022/05/27 19:40:26;;;;;;;2.00;1.90;;;15.50;99.90;;;;;;4886930;29;20448;-93
2022/05/27 19:43:03;;;;;;;2.10;1.87;;;15.50;99.90;;;;;;4874109;29;20819;-93
2022/05/27 19:45:29;;;;;;;2.33;2.17;;;15.50;99.90;;;;;;4878497;29;20448;-91
2022/05/27 19:47:55;;;;;;;2.07;1.97;;;15.40;99.90;;;;;;4901593;29;20523;-94
2022/05/27 19:50:26;;;;;;;1.90;1.80;;;15.40;99.90;;;;;;4902479;29;20495;-93
2022/05/27 19:52:56;;;;;;;2.67;2.47;;;15.40;99.90;;;;;;4890934;29;21160;-92
2022/05/27 19:55:22;;;;;;;2.20;2.10;;;15.30;99.90;;;;;;4875032;29;20770;-91
2022/05/27 20:00:33;;;;;;;3.17;2.37;;;15.30;99.90;;;;;;4889114;29;20312;-90
2022/05/27 20:05:47;;;;;;;2.27;2.13;;;15.20;99.90;;;;;;4884562;29;20264;-89
2022/05/27 20:08:13;;;;;;;5.77;2.83;;;15.20;99.90;;;;;;4884578;29;20460;-95
2022/05/27 20:11:15;;;;;;;2.70;2.50;;;15.20;99.90;;;;;;4892893;29;20195;-93
2022/05/27 20:14:14;;;;;;;2.60;2.40;;;15.20;99.90;;;;;;4892941;29;20480;-90
2022/05/27 20:16:58;;;;;;;4.30;3.10;;;15.10;99.90;;;;;;4892629;29;20444;-92
2022/05/27 20:19:40;;;;;;;3.80;3.50;;;15.10;99.90;;;;;;4888511;29;20599;-93
2022/05/27 20:22:14;;;;;;;3.20;2.77;;;15.00;99.90;;;;;;4910480;29;20441;-93
2022/05/27 20:24:52;;;;;;;2.40;2.20;;;14.90;99.90;;;;;;4911114;29;20447;-96
2022/05/27 20:27:25;;;;;;;2.63;2.30;;;14.90;99.90;;;;;;4904812;29;20519;-94
2022/05/27 20:29:57;;;;;;;3.50;2.50;;;15.00;99.90;;;;;;4911222;29;20683;-94
2022/05/27 20:32:46;;;;;;;2.80;2.60;;;14.90;99.90;;;;;;4874040;29;20211;-95
2022/05/27 20:36:57;;;;;;;2.37;2.17;;;14.90;99.90;;;;;;4902583;29;20448;-95
2022/05/27 20:38:28;;;;;;;2.53;2.33;;;14.90;99.90;;;;;;4907510;29;20483;-94
2022/05/27 20:40:54;;;;;;;2.97;2.33;;;14.80;99.90;;;;;;4899321;29;22210;-96
2022/05/27 20:43:35;;;;;;;2.53;2.33;;;14.80;99.90;;;;;;4860630;29;20457;-94
2022/05/27 20:46:05;;;;;;;3.23;2.93;;;14.70;99.90;;;;;;4861137;29;20460;-94
2022/05/27 20:48:39;;;;;;;3.53;2.83;;;14.70;99.90;;;;;;4898845;29;20798;-92
2022/05/27 20:51:59;;;;;;;2.80;2.57;;;14.70;99.90;;;;;;4866002;29;20579;-94
2022/05/27 20:54:55;;;;;;;2.27;2.13;;;14.70;99.90;;;;;;4899834;29;20561;-96
2022/05/27 20:57:44;;;;;;;3.90;2.70;;;14.60;99.90;;;;;;4897836;29;20854;-94
2022/05/27 21:00:10;;;;;;;3.00;2.50;;;14.70;99.90;;;;;;4893266;29;21079;-94
2022/05/27 21:02:42;;;;;;;2.67;2.40;;;14.60;99.90;;;;;;4873417;29;21009;-96
2022/05/27 21:05:22;;;;;;;2.60;2.50;;;14.60;99.90;;;;;;4884311;29;21289;-96
2022/05/27 21:08:04;;;;;;;3.70;2.30;;;14.50;99.90;;;;;;4876258;29;20464;-96
2022/05/27 21:10:41;;;;;;;2.83;2.53;;;14.50;99.90;;;;;;4875174;29;20513;-95
2022/05/27 21:13:06;;;;;;;2.60;2.40;;;14.60;99.90;;;;;;4886437;29;20479;-96
2022/05/27 21:15:32;;;;;;;2.80;2.50;;;14.50;99.90;;;;;;4875421;29;21017;-95
2022/05/27 21:18:07;;;;;;;2.67;2.53;;;14.50;99.90;;;;;;4883807;29;20538;-94
2022/05/27 21:20:54;;;;;;;2.93;2.73;;;14.50;99.90;;;;;;4901557;29;20234;-94
2022/05/27 21:23:22;;;;;;;2.30;2.10;;;14.40;99.90;;;;;;4885166;29;20885;-94
2022/05/27 21:25:49;;;;;;;3.03;2.30;;;14.40;99.90;;;;;;4885352;29;20725;-94
2022/05/27 21:28:15;;;;;;;2.80;2.60;;;14.40;99.90;;;;;;4896552;29;20451;-95
2022/05/27 21:30:44;;;;;;;2.40;2.20;;;14.30;99.90;;;;;;4879279;29;21018;-95
2022/05/27 21:33:11;;;;;;;3.20;2.87;;;14.30;99.90;;;;;;4879769;29;20200;-95
2022/05/27 21:35:37;;;;;;;2.87;2.57;;;14.30;99.90;;;;;;4881336;29;20595;-95
2022/05/27 21:38:04;;;;;;;3.90;2.80;;;14.20;99.90;;;;;;4882002;29;20887;-94
2022/05/27 21:40:30;;;;;;;3.93;2.40;;;14.30;99.90;;;;;;4896150;29;20464;-93
2022/05/27 21:42:56;;;;;;;2.53;2.33;;;14.30;99.90;;;;;;4884248;29;20456;-96
2022/05/27 21:45:27;;;;;;;3.07;2.67;;;14.20;99.90;;;;;;4901932;29;20969;-96
2022/05/27 21:47:52;;;;;;;2.50;2.30;;;14.30;99.90;;;;;;4887248;29;20452;-96
2022/05/27 21:50:20;;;;;;;3.83;2.47;;;14.20;99.90;;;;;;4888006;29;20503;-94
2022/05/27 21:52:46;;;;;;;2.80;2.60;;;14.20;99.90;;;;;;4879613;29;20197;-93
2022/05/27 21:55:13;;;;;;;2.97;2.77;;;14.20;99.90;;;;;;4884193;29;20452;-93
2022/05/27 21:57:40;;;;;;;3.17;2.50;;;14.10;99.90;;;;;;4898316;29;20189;-94
2022/05/27 22:00:08;;;;;;;2.83;2.23;;;14.10;99.90;;;;;;4879415;29;20467;-95